Time;durP1;ratioP1;P1;durP2;ratioP2;P2;SDS_P1;SDS_P2;PMS_P1;PMS_P2;Temp;Humidity;BMP_temperature;BMP_pressure;BME280_temperature;BME280_humidity;BME280_pressure;Samples;Min_cycle;Max_cycle;Signal;HPM_P1;HPM_P2
2021/12/26 00:01:42;;;;;;;27.50;19.70;;;;;;;;;;5073831;28;20437;-80
2021/12/26 00:04:13;;;;;;;24.40;17.90;;;;;;;;;;5072917;28;20504;-80
2021/12/26 00:06:41;;;;;;;22.57;17.60;;;;;;;;;;5072433;28;20860;-79
2021/12/26 00:09:08;;;;;;;25.07;17.63;;;;;;;;;;5071789;28;20434;-79
2021/12/26 00:11:35;;;;;;;24.90;17.93;;;;;;;;;;5073984;28;20490;-79
2021/12/26 00:14:05;;;;;;;20.70;17.43;;;;;;;;;;5073810;28;20977;-78
2021/12/26 00:16:32;;;;;;;22.33;17.13;;;;;;;;;;5066882;28;20488;-79
2021/12/26 00:18:59;;;;;;;21.77;17.05;;;;;;;;;;5077771;28;20429;-80
2021/12/26 00:21:27;;;;;;;23.77;17.57;;;;;;;;;;5076708;28;20206;-80
2021/12/26 00:23:57;;;;;;;20.20;16.50;;;;;;;;;;5077203;28;20451;-79
2021/12/26 00:26:24;;;;;;;22.20;17.60;;;;;;;;;;5077373;28;20503;-79
2021/12/26 00:28:51;;;;;;;18.80;16.00;;;;;;;;;;5078423;28;20508;-80
2021/12/26 00:31:18;;;;;;;17.83;14.15;;;;;;;;;;5077888;28;20464;-79
2021/12/26 00:33:45;;;;;;;20.03;16.50;;;;;;;;;;5076190;28;20205;-80
2021/12/26 00:36:12;;;;;;;20.10;14.67;;;;;;;;;;5072722;28;20473;-79
2021/12/26 00:38:39;;;;;;;18.47;14.73;;;;;;;;;;5065905;28;20453;-80
2021/12/26 00:41:08;;;;;;;20.00;15.33;;;;;;;;;;5087632;28;20433;-79
2021/12/26 00:43:35;;;;;;;20.10;15.10;;;;;;;;;;5078544;28;20512;-79
2021/12/26 00:46:02;;;;;;;18.37;14.00;;;;;;;;;;5080957;28;20503;-80
2021/12/26 00:48:29;;;;;;;16.50;13.37;;;;;;;;;;5080442;28;20443;-78
2021/12/26 00:50:56;;;;;;;18.33;13.40;;;;;;;;;;5079947;28;20470;-79
2021/12/26 00:53:24;;;;;;;17.60;14.00;;;;;;;;;;5077357;28;20445;-78
2021/12/26 00:55:51;;;;;;;19.10;14.10;;;;;;;;;;5076777;28;20475;-79
2021/12/26 00:58:19;;;;;;;20.33;14.67;;;;;;;;;;5077228;28;20483;-79
2021/12/26 01:00:48;;;;;;;19.57;13.43;;;;;;;;;;5077208;28;20446;-80
2021/12/26 01:03:15;;;;;;;22.17;14.95;;;;;;;;;;5077309;28;20960;-79
2021/12/26 01:05:44;;;;;;;17.00;13.83;;;;;;;;;;5075384;28;20220;-79
2021/12/26 01:08:13;;;;;;;16.03;13.17;;;;;;;;;;5076381;28;20429;-80
2021/12/26 01:10:50;;;;;;;19.80;13.93;;;;;;;;;;5074723;28;20951;-79
2021/12/26 01:13:23;;;;;;;16.10;13.07;;;;;;;;;;5077899;28;20440;-80
2021/12/26 01:15:55;;;;;;;18.87;13.60;;;;;;;;;;5076031;28;20624;-79
2021/12/26 01:18:22;;;;;;;19.17;14.47;;;;;;;;;;5076100;28;20858;-77
2021/12/26 01:20:54;;;;;;;19.83;14.47;;;;;;;;;;5074541;28;20456;-79
2021/12/26 01:23:22;;;;;;;16.90;13.43;;;;;;;;;;5076594;28;20459;-79
2021/12/26 01:25:50;;;;;;;16.33;13.53;;;;;;;;;;5076439;28;20454;-79
2021/12/26 01:28:18;;;;;;;17.60;13.30;;;;;;;;;;5075837;28;20448;-79
2021/12/26 01:30:46;;;;;;;19.87;14.73;;;;;;;;;;5073994;28;20693;-79
2021/12/26 01:33:16;;;;;;;20.53;15.80;;;;;;;;;;5074426;28;20576;-80
2021/12/26 01:35:43;;;;;;;17.37;13.37;;;;;;;;;;5076190;28;20463;-80
2021/12/26 01:38:13;;;;;;;19.70;14.60;;;;;;;;;;5071580;28;20488;-80
2021/12/26 01:40:43;;;;;;;18.20;13.23;;;;;;;;;;5066756;28;20485;-80
2021/12/26 01:43:10;;;;;;;18.60;14.37;;;;;;;;;;5074308;28;20447;-80
2021/12/26 01:45:37;;;;;;;17.60;13.93;;;;;;;;;;5075660;28;20456;-79
2021/12/26 01:48:06;;;;;;;16.47;13.77;;;;;;;;;;5072895;28;20446;-80
2021/12/26 01:50:39;;;;;;;20.10;14.73;;;;;;;;;;5075321;28;20524;-79
2021/12/26 01:53:06;;;;;;;16.80;13.43;;;;;;;;;;5074560;28;20482;-79
2021/12/26 01:55:42;;;;;;;15.93;12.97;;;;;;;;;;5072961;28;20478;-80
2021/12/26 01:58:10;;;;;;;15.90;13.57;;;;;;;;;;5074404;28;20591;-79
2021/12/26 02:00:38;;;;;;;16.23;12.73;;;;;;;;;;5074029;28;20456;-79
2021/12/26 02:03:05;;;;;;;15.17;13.10;;;;;;;;;;5054995;28;20448;-80
2021/12/26 02:05:32;;;;;;;17.10;13.20;;;;;;;;;;5055173;28;20468;-80
2021/12/26 02:08:00;;;;;;;15.48;13.45;;;;;;;;;;5057109;28;20987;-80
2021/12/26 02:10:28;;;;;;;15.57;12.87;;;;;;;;;;5054096;28;20208;-79
2021/12/26 02:12:55;;;;;;;15.27;13.20;;;;;;;;;;5054336;28;20461;-79
2021/12/26 02:15:22;;;;;;;13.60;12.03;;;;;;;;;;5055602;28;20469;-79
2021/12/26 02:17:49;;;;;;;16.73;13.03;;;;;;;;;;5054836;28;20484;-80
2021/12/26 02:20:24;;;;;;;16.70;13.37;;;;;;;;;;5053150;28;20968;-79
2021/12/26 02:22:56;;;;;;;15.73;13.90;;;;;;;;;;5054075;28;20449;-79
2021/12/26 02:25:33;;;;;;;15.67;13.30;;;;;;;;;;5055776;28;20552;-79
2021/12/26 02:28:00;;;;;;;17.53;14.03;;;;;;;;;;5054270;28;20441;-79
2021/12/26 02:30:28;;;;;;;16.80;14.68;;;;;;;;;;5060907;28;20432;-80
2021/12/26 02:32:59;;;;;;;15.63;13.47;;;;;;;;;;5053969;28;20741;-79
2021/12/26 02:35:27;;;;;;;19.63;14.93;;;;;;;;;;5054002;28;20579;-80
2021/12/26 02:37:54;;;;;;;19.27;14.25;;;;;;;;;;5057434;28;20485;-80
2021/12/26 02:40:22;;;;;;;16.85;14.63;;;;;;;;;;5055391;28;20206;-80
2021/12/26 02:42:49;;;;;;;15.70;13.57;;;;;;;;;;5055262;28;20278;-79
2021/12/26 02:45:16;;;;;;;17.27;14.15;;;;;;;;;;5059105;28;20457;-79
2021/12/26 02:47:45;;;;;;;17.10;13.63;;;;;;;;;;5059722;28;20202;-79
2021/12/26 02:50:13;;;;;;;17.50;14.40;;;;;;;;;;5058979;28;20434;-81
2021/12/26 02:52:41;;;;;;;16.23;14.23;;;;;;;;;;5061864;28;20453;-79
2021/12/26 02:55:09;;;;;;;17.80;15.00;;;;;;;;;;5058028;28;20935;-81
2021/12/26 02:57:36;;;;;;;17.77;13.50;;;;;;;;;;5057461;28;20472;-79
2021/12/26 03:00:04;;;;;;;17.73;14.37;;;;;;;;;;5057742;28;20937;-79
2021/12/26 03:02:31;;;;;;;18.65;15.52;;;;;;;;;;5056680;28;20438;-79
2021/12/26 03:04:58;;;;;;;19.00;15.77;;;;;;;;;;5054941;28;20221;-79
2021/12/26 03:07:25;;;;;;;18.13;15.17;;;;;;;;;;5054322;28;20504;-79
2021/12/26 03:09:59;;;;;;;18.63;15.07;;;;;;;;;;5054287;28;20877;-78
2021/12/26 03:12:26;;;;;;;18.90;15.60;;;;;;;;;;5054334;28;20452;-79
2021/12/26 03:14:53;;;;;;;18.80;14.70;;;;;;;;;;5053779;28;20457;-80
2021/12/26 03:17:20;;;;;;;18.90;14.97;;;;;;;;;;5054353;28;20484;-79
2021/12/26 03:19:48;;;;;;;20.40;15.87;;;;;;;;;;5053848;28;20476;-78
2021/12/26 03:22:15;;;;;;;17.55;14.88;;;;;;;;;;5054203;28;20441;-80
2021/12/26 03:24:43;;;;;;;18.53;14.33;;;;;;;;;;5052953;28;20226;-79
2021/12/26 03:27:12;;;;;;;21.57;15.50;;;;;;;;;;5052920;28;20803;-80
2021/12/26 03:29:39;;;;;;;21.30;16.33;;;;;;;;;;5053162;28;20449;-78
2021/12/26 03:32:06;;;;;;;20.70;15.60;;;;;;;;;;5052677;28;20441;-78
2021/12/26 03:34:33;;;;;;;20.23;15.50;;;;;;;;;;5052127;28;20432;-79
2021/12/26 03:37:00;;;;;;;19.60;14.97;;;;;;;;;;5052354;28;20442;-79
2021/12/26 03:39:27;;;;;;;22.70;16.37;;;;;;;;;;5052245;28;20873;-79
2021/12/26 03:41:54;;;;;;;22.65;17.02;;;;;;;;;;5055319;28;20998;-79
2021/12/26 03:44:23;;;;;;;19.63;15.07;;;;;;;;;;5053831;28;20199;-80
2021/12/26 03:46:50;;;;;;;20.83;16.13;;;;;;;;;;5051690;28;20464;-78
2021/12/26 03:49:17;;;;;;;21.30;16.27;;;;;;;;;;5051834;28;20448;-79
2021/12/26 03:51:44;;;;;;;19.43;16.47;;;;;;;;;;5052105;28;20449;-78
2021/12/26 03:54:11;;;;;;;22.40;16.37;;;;;;;;;;5052059;28;20470;-79
2021/12/26 03:56:38;;;;;;;21.07;15.30;;;;;;;;;;5051883;28;20811;-78
2021/12/26 03:59:05;;;;;;;17.93;15.10;;;;;;;;;;5052299;28;20484;-79
2021/12/26 04:01:33;;;;;;;18.87;14.47;;;;;;;;;;5052152;28;20445;-79
2021/12/26 04:04:00;;;;;;;22.00;16.00;;;;;;;;;;5055039;28;20449;-79
2021/12/26 04:06:28;;;;;;;26.00;19.10;;;;;;;;;;5063754;28;20853;-79
2021/12/26 04:08:55;;;;;;;21.93;16.07;;;;;;;;;;5072202;28;20436;-80
2021/12/26 04:11:23;;;;;;;20.73;15.93;;;;;;;;;;5071979;28;20448;-80
2021/12/26 04:13:50;;;;;;;24.33;18.03;;;;;;;;;;5071639;28;20948;-78
2021/12/26 04:16:17;;;;;;;20.17;15.87;;;;;;;;;;5073217;28;20468;-78
2021/12/26 04:18:45;;;;;;;23.93;16.73;;;;;;;;;;5073632;28;20995;-78
2021/12/26 04:21:12;;;;;;;24.53;17.70;;;;;;;;;;5074049;28;20502;-78
2021/12/26 04:23:39;;;;;;;24.60;17.20;;;;;;;;;;5074635;28;20437;-78
2021/12/26 04:26:06;;;;;;;26.73;19.20;;;;;;;;;;5075649;28;20456;-79
2021/12/26 04:28:34;;;;;;;23.27;17.53;;;;;;;;;;5074003;28;20452;-79
2021/12/26 04:31:01;;;;;;;28.50;19.60;;;;;;;;;;5073646;28;20441;-78
2021/12/26 04:33:28;;;;;;;26.50;19.23;;;;;;;;;;5075749;28;20436;-79
2021/12/26 04:35:56;;;;;;;27.30;18.87;;;;;;;;;;5075119;28;20464;-80
2021/12/26 04:38:23;;;;;;;27.00;18.27;;;;;;;;;;5078043;28;20479;-79
2021/12/26 04:40:51;;;;;;;24.70;18.23;;;;;;;;;;5096246;28;20447;-80
2021/12/26 04:43:20;;;;;;;27.17;18.58;;;;;;;;;;5087734;28;20877;-79
2021/12/26 04:45:47;;;;;;;25.87;18.47;;;;;;;;;;5088166;28;20718;-80
2021/12/26 04:48:14;;;;;;;26.80;18.00;;;;;;;;;;5087507;28;20445;-79
2021/12/26 04:50:44;;;;;;;27.83;18.47;;;;;;;;;;5087992;28;20563;-80
2021/12/26 04:53:13;;;;;;;26.53;17.47;;;;;;;;;;5088115;28;20444;-79
2021/12/26 04:55:40;;;;;;;25.03;17.90;;;;;;;;;;5087491;28;20472;-79
2021/12/26 04:58:07;;;;;;;27.83;18.90;;;;;;;;;;5088272;28;20483;-79
2021/12/26 05:00:34;;;;;;;26.03;18.87;;;;;;;;;;5090616;28;20436;-79
2021/12/26 05:03:04;;;;;;;25.30;18.65;;;;;;;;;;5091557;28;20548;-80
2021/12/26 05:05:31;;;;;;;25.80;18.13;;;;;;;;;;5090354;28;20219;-80
2021/12/26 05:07:58;;;;;;;25.50;18.73;;;;;;;;;;5087148;28;20441;-79
2021/12/26 05:10:28;;;;;;;26.53;18.40;;;;;;;;;;5066363;28;20207;-79
2021/12/26 05:12:56;;;;;;;23.40;17.60;;;;;;;;;;5066108;28;20433;-78
2021/12/26 05:15:23;;;;;;;27.53;18.20;;;;;;;;;;5074588;28;20468;-78
2021/12/26 05:17:50;;;;;;;25.00;18.13;;;;;;;;;;5068136;28;20445;-78
2021/12/26 05:20:19;;;;;;;25.87;17.20;;;;;;;;;;5073885;28;20199;-79
2021/12/26 05:22:46;;;;;;;23.90;17.98;;;;;;;;;;5074032;28;20487;-79
2021/12/26 05:25:13;;;;;;;29.75;19.15;;;;;;;;;;5074340;28;20268;-79
2021/12/26 05:27:42;;;;;;;25.33;17.30;;;;;;;;;;5074331;28;20199;-80
2021/12/26 05:30:11;;;;;;;26.33;18.50;;;;;;;;;;5074186;28;20445;-81
2021/12/26 05:32:38;;;;;;;26.87;18.33;;;;;;;;;;5073551;28;20463;-79
2021/12/26 05:35:05;;;;;;;26.17;18.03;;;;;;;;;;5074152;28;20469;-79
2021/12/26 05:37:32;;;;;;;24.73;18.57;;;;;;;;;;5073711;28;20479;-79
2021/12/26 05:40:02;;;;;;;28.57;19.23;;;;;;;;;;5074303;28;20476;-79
2021/12/26 05:42:29;;;;;;;29.90;19.80;;;;;;;;;;5073512;28;20441;-80
2021/12/26 05:44:58;;;;;;;27.63;20.50;;;;;;;;;;5073735;28;20487;-79
2021/12/26 05:47:25;;;;;;;25.30;18.43;;;;;;;;;;5073760;28;20447;-79
2021/12/26 05:49:52;;;;;;;27.23;19.73;;;;;;;;;;5074013;28;20448;-78
2021/12/26 05:52:19;;;;;;;29.40;20.33;;;;;;;;;;5074328;28;20772;-79
2021/12/26 05:54:47;;;;;;;31.03;20.07;;;;;;;;;;5074170;28;20452;-79
2021/12/26 05:57:14;;;;;;;29.27;19.30;;;;;;;;;;5073544;28;20494;-79
2021/12/26 05:59:41;;;;;;;27.52;19.60;;;;;;;;;;5074930;28;20987;-79
2021/12/26 06:02:10;;;;;;;31.70;19.40;;;;;;;;;;5077259;28;20189;-79
2021/12/26 06:04:37;;;;;;;24.80;18.27;;;;;;;;;;5073521;28;20472;-79
2021/12/26 06:07:04;;;;;;;29.43;19.70;;;;;;;;;;5075077;28;20493;-79
2021/12/26 06:09:31;;;;;;;27.97;19.47;;;;;;;;;;5073033;28;20431;-79
2021/12/26 06:11:58;;;;;;;27.27;19.20;;;;;;;;;;5063318;28;20445;-79
2021/12/26 06:14:25;;;;;;;27.60;19.23;;;;;;;;;;5056700;28;20446;-79
2021/12/26 06:16:53;;;;;;;27.33;19.65;;;;;;;;;;5055017;28;20215;-78
2021/12/26 06:19:21;;;;;;;25.73;18.20;;;;;;;;;;5055031;28;20720;-78
2021/12/26 06:21:48;;;;;;;23.50;17.30;;;;;;;;;;5053438;28;20468;-79
2021/12/26 06:24:15;;;;;;;25.43;17.90;;;;;;;;;;5053234;28;20491;-78
2021/12/26 06:26:42;;;;;;;26.27;17.70;;;;;;;;;;5054626;28;20867;-79
2021/12/26 06:29:09;;;;;;;26.07;18.33;;;;;;;;;;5057530;28;20437;-79
2021/12/26 06:31:37;;;;;;;27.50;19.37;;;;;;;;;;5053914;28;20452;-78
2021/12/26 06:34:04;;;;;;;29.53;19.57;;;;;;;;;;5058553;28;20445;-78
2021/12/26 06:36:32;;;;;;;21.73;15.83;;;;;;;;;;5063800;28;20542;-79
2021/12/26 06:38:59;;;;;;;25.20;18.60;;;;;;;;;;5063163;28;20481;-78
2021/12/26 06:41:26;;;;;;;25.10;17.53;;;;;;;;;;5052793;28;20796;-79
2021/12/26 06:43:53;;;;;;;22.47;17.37;;;;;;;;;;5052876;28;20533;-79
2021/12/26 06:46:21;;;;;;;24.27;18.13;;;;;;;;;;5053048;28;20545;-78
2021/12/26 06:48:48;;;;;;;25.60;17.77;;;;;;;;;;5070315;28;20969;-79
2021/12/26 06:51:15;;;;;;;25.30;18.50;;;;;;;;;;5075446;28;20498;-80
2021/12/26 06:53:43;;;;;;;22.70;17.00;;;;;;;;;;5073014;28;20203;-78
2021/12/26 06:56:11;;;;;;;24.80;17.30;;;;;;;;;;5072574;28;20514;-79
2021/12/26 06:58:38;;;;;;;28.93;18.37;;;;;;;;;;5072900;28;20476;-79
2021/12/26 07:01:05;;;;;;;26.10;18.37;;;;;;;;;;5074050;28;20475;-80
2021/12/26 07:03:32;;;;;;;23.00;16.27;;;;;;;;;;5073001;28;20436;-78
2021/12/26 07:05:59;;;;;;;26.10;17.57;;;;;;;;;;5072405;28;20817;-78
2021/12/26 07:08:26;;;;;;;22.23;17.87;;;;;;;;;;5072861;28;20443;-79
2021/12/26 07:10:54;;;;;;;22.93;16.93;;;;;;;;;;5072487;28;20460;-79
2021/12/26 07:13:21;;;;;;;25.60;18.40;;;;;;;;;;5072683;28;20448;-78
2021/12/26 07:15:49;;;;;;;25.93;17.80;;;;;;;;;;5073066;28;20472;-78
2021/12/26 07:18:16;;;;;;;26.90;18.67;;;;;;;;;;5073162;28;20445;-78
2021/12/26 07:20:43;;;;;;;26.90;18.20;;;;;;;;;;5073980;28;20451;-79
2021/12/26 07:23:10;;;;;;;22.73;17.27;;;;;;;;;;5074390;28;20451;-79
2021/12/26 07:25:37;;;;;;;22.80;16.47;;;;;;;;;;5073963;28;20468;-79
2021/12/26 07:28:06;;;;;;;24.60;17.37;;;;;;;;;;5072839;28;20510;-77
2021/12/26 07:30:33;;;;;;;22.13;15.30;;;;;;;;;;5082003;28;20445;-79
2021/12/26 07:33:00;;;;;;;21.40;16.20;;;;;;;;;;5097978;28;20472;-76
2021/12/26 07:35:27;;;;;;;23.33;17.27;;;;;;;;;;5097788;28;20471;-79
2021/12/26 07:37:54;;;;;;;22.70;16.37;;;;;;;;;;5097430;28;20460;-79
2021/12/26 07:40:22;;;;;;;23.08;15.45;;;;;;;;;;5096884;28;20468;-81
2021/12/26 07:42:49;;;;;;;25.00;18.30;;;;;;;;;;5096676;28;20475;-79
2021/12/26 07:45:17;;;;;;;22.15;15.98;;;;;;;;;;5096986;28;20457;-77
2021/12/26 07:47:44;;;;;;;23.37;16.63;;;;;;;;;;5096895;28;20182;-77
2021/12/26 07:50:11;;;;;;;22.83;15.55;;;;;;;;;;5096756;28;20437;-77
2021/12/26 07:52:42;;;;;;;23.10;17.10;;;;;;;;;;5096508;28;20182;-78
2021/12/26 07:55:12;;;;;;;28.93;18.50;;;;;;;;;;5074394;28;20461;-78
2021/12/26 07:57:39;;;;;;;21.60;15.73;;;;;;;;;;5071340;28;20449;-78
2021/12/26 08:00:08;;;;;;;23.50;17.47;;;;;;;;;;5071682;28;20553;-78
2021/12/26 08:02:38;;;;;;;24.70;17.30;;;;;;;;;;5071674;28;20939;-78
2021/12/26 08:05:05;;;;;;;25.47;18.40;;;;;;;;;;5071608;28;20770;-78
2021/12/26 08:07:33;;;;;;;24.63;15.07;;;;;;;;;;5068991;28;20456;-78
2021/12/26 08:10:00;;;;;;;52.20;35.47;;;;;;;;;;5071079;28;20658;-78
2021/12/26 08:12:27;;;;;;;59.78;38.90;;;;;;;;;;5071064;28;20542;-79
2021/12/26 08:14:54;;;;;;;78.03;53.23;;;;;;;;;;5071635;28;20194;-78
2021/12/26 08:17:21;;;;;;;26.30;19.40;;;;;;;;;;5068704;28;20446;-79
2021/12/26 08:19:50;;;;;;;25.80;17.77;;;;;;;;;;5069577;28;20477;-78
2021/12/26 08:22:17;;;;;;;26.25;17.45;;;;;;;;;;5068565;28;20452;-79
2021/12/26 08:24:44;;;;;;;25.23;16.30;;;;;;;;;;5070762;28;20202;-78
2021/12/26 08:27:11;;;;;;;27.33;18.80;;;;;;;;;;5059853;28;20433;-78
2021/12/26 08:29:38;;;;;;;27.90;18.60;;;;;;;;;;5051622;28;20445;-77
2021/12/26 08:32:06;;;;;;;27.27;19.00;;;;;;;;;;5051547;28;20857;-79
2021/12/26 08:34:33;;;;;;;28.33;19.03;;;;;;;;;;5052626;28;20544;-79
2021/12/26 08:37:03;;;;;;;25.67;18.37;;;;;;;;;;5063307;28;20915;-78
2021/12/26 08:39:34;;;;;;;26.70;18.25;;;;;;;;;;5076673;28;20483;-77
2021/12/26 08:42:01;;;;;;;26.27;17.70;;;;;;;;;;5074920;28;20191;-78
2021/12/26 08:44:28;;;;;;;22.30;16.87;;;;;;;;;;5074712;28;20444;-78
2021/12/26 08:46:55;;;;;;;25.17;17.80;;;;;;;;;;5076055;28;20514;-79
2021/12/26 08:49:23;;;;;;;26.55;19.25;;;;;;;;;;5076026;28;20471;-79
2021/12/26 08:51:50;;;;;;;23.70;18.27;;;;;;;;;;5075759;28;20260;-78
2021/12/26 08:54:19;;;;;;;24.60;18.40;;;;;;;;;;5074826;28;20441;-79
2021/12/26 08:56:46;;;;;;;23.80;18.23;;;;;;;;;;5074728;28;20862;-78
2021/12/26 08:59:13;;;;;;;27.13;18.87;;;;;;;;;;5075158;28;20476;-79
2021/12/26 09:01:40;;;;;;;25.93;18.70;;;;;;;;;;5074630;28;20456;-79
2021/12/26 09:04:08;;;;;;;26.10;18.80;;;;;;;;;;5073772;28;20452;-78
2021/12/26 09:06:35;;;;;;;26.30;18.60;;;;;;;;;;5075576;28;20463;-78
2021/12/26 09:09:02;;;;;;;25.23;18.30;;;;;;;;;;5074571;28;20210;-79
2021/12/26 09:11:30;;;;;;;25.92;16.73;;;;;;;;;;5074602;28;20547;-79
2021/12/26 09:13:57;;;;;;;24.67;17.80;;;;;;;;;;5074619;28;20206;-80
2021/12/26 09:16:25;;;;;;;27.90;19.67;;;;;;;;;;5074492;28;20465;-79
2021/12/26 09:18:52;;;;;;;62.72;43.05;;;;;;;;;;5073643;28;20487;-78
2021/12/26 09:21:19;;;;;;;83.00;52.97;;;;;;;;;;5071127;28;20267;-78
2021/12/26 09:23:46;;;;;;;32.97;24.03;;;;;;;;;;5074101;28;20437;-78
2021/12/26 09:26:13;;;;;;;26.20;19.17;;;;;;;;;;5074635;28;20530;-80
2021/12/26 09:28:42;;;;;;;25.17;19.00;;;;;;;;;;5074376;28;20449;-79
2021/12/26 09:31:09;;;;;;;24.10;19.17;;;;;;;;;;5075341;28;20468;-79
2021/12/26 09:33:36;;;;;;;25.93;19.10;;;;;;;;;;5074398;28;20437;-79
2021/12/26 09:36:03;;;;;;;24.77;18.63;;;;;;;;;;5074858;28;20465;-79
2021/12/26 09:38:30;;;;;;;25.43;18.37;;;;;;;;;;5075430;28;20445;-79
2021/12/26 09:40:59;;;;;;;26.33;19.70;;;;;;;;;;5074233;28;20484;-80
2021/12/26 09:43:26;;;;;;;25.67;19.00;;;;;;;;;;5074284;28;20945;-79
2021/12/26 09:45:55;;;;;;;28.50;19.93;;;;;;;;;;5076141;28;20522;-80
2021/12/26 09:48:22;;;;;;;28.30;21.47;;;;;;;;;;5076769;28;20497;-81
2021/12/26 09:50:49;;;;;;;26.63;20.27;;;;;;;;;;5077774;28;20924;-80
2021/12/26 09:53:16;;;;;;;27.63;20.40;;;;;;;;;;5077736;28;20436;-80
2021/12/26 09:55:43;;;;;;;25.10;20.00;;;;;;;;;;5076942;28;20510;-80
2021/12/26 09:58:10;;;;;;;31.17;20.90;;;;;;;;;;5076826;28;20449;-80
2021/12/26 10:00:39;;;;;;;27.50;19.57;;;;;;;;;;5077045;28;20469;-80
2021/12/26 10:03:13;;;;;;;26.47;19.50;;;;;;;;;;5077753;28;20468;-80
2021/12/26 10:05:56;;;;;;;24.77;18.93;;;;;;;;;;5083480;28;20461;-81
2021/12/26 10:08:23;;;;;;;27.87;19.87;;;;;;;;;;5085113;28;20554;-80
2021/12/26 10:11:04;;;;;;;25.17;19.73;;;;;;;;;;5087022;28;20456;-79
2021/12/26 10:13:41;;;;;;;24.75;18.63;;;;;;;;;;5086776;28;20197;-80
2021/12/26 10:16:09;;;;;;;27.53;20.10;;;;;;;;;;5082095;28;20233;-80
2021/12/26 10:18:39;;;;;;;26.90;19.30;;;;;;;;;;5077405;28;20440;-80
2021/12/26 10:21:21;;;;;;;28.10;19.97;;;;;;;;;;5076274;28;20481;-80
2021/12/26 10:23:48;;;;;;;36.07;20.00;;;;;;;;;;5077763;28;20764;-80
2021/12/26 10:26:19;;;;;;;27.03;19.50;;;;;;;;;;5077233;28;20465;-80
2021/12/26 10:29:04;;;;;;;27.53;19.00;;;;;;;;;;5077941;28;20802;-80
2021/12/26 10:31:31;;;;;;;26.17;20.33;;;;;;;;;;5077293;28;20436;-81
2021/12/26 10:33:59;;;;;;;28.50;20.77;;;;;;;;;;5076540;28;20437;-80
2021/12/26 10:36:28;;;;;;;24.00;18.83;;;;;;;;;;5077329;28;20472;-80
2021/12/26 10:39:08;;;;;;;23.00;18.25;;;;;;;;;;5078290;28;20429;-80
2021/12/26 10:41:35;;;;;;;22.63;17.90;;;;;;;;;;5077896;28;20222;-80
2021/12/26 10:44:02;;;;;;;24.40;18.20;;;;;;;;;;5075966;28;20448;-81
2021/12/26 10:46:29;;;;;;;24.48;17.70;;;;;;;;;;5076072;28;20472;-80
2021/12/26 10:48:56;;;;;;;21.40;17.07;;;;;;;;;;5072969;28;20198;-81
2021/12/26 10:51:36;;;;;;;22.13;17.57;;;;;;;;;;5075454;28;20449;-80
2021/12/26 10:54:13;;;;;;;21.10;17.83;;;;;;;;;;5072625;28;20432;-80
2021/12/26 10:56:40;;;;;;;22.17;16.83;;;;;;;;;;5075513;28;20806;-80
2021/12/26 10:59:19;;;;;;;18.90;16.20;;;;;;;;;;5075792;28;20255;-80
2021/12/26 11:01:48;;;;;;;21.52;16.27;;;;;;;;;;5076372;28;20445;-80
2021/12/26 11:04:15;;;;;;;20.33;15.27;;;;;;;;;;5072217;28;20276;-82
2021/12/26 11:06:59;;;;;;;18.00;15.23;;;;;;;;;;5075490;28;20984;-81
2021/12/26 11:09:26;;;;;;;19.33;15.40;;;;;;;;;;5076523;28;20444;-81
2021/12/26 11:12:05;;;;;;;15.60;13.70;;;;;;;;;;5076785;28;20940;-81
2021/12/26 11:14:33;;;;;;;14.00;12.33;;;;;;;;;;5075349;28;20436;-80
2021/12/26 11:17:00;;;;;;;15.53;13.77;;;;;;;;;;5075439;28;20453;-81
2021/12/26 11:19:41;;;;;;;15.37;13.77;;;;;;;;;;5077396;28;20499;-82
2021/12/26 11:22:09;;;;;;;16.87;14.07;;;;;;;;;;5075919;28;20458;-81
2021/12/26 11:24:36;;;;;;;15.40;13.17;;;;;;;;;;5075993;28;20916;-80
2021/12/26 11:27:04;;;;;;;15.60;14.00;;;;;;;;;;5077179;28;20446;-82
2021/12/26 11:29:32;;;;;;;14.03;12.63;;;;;;;;;;5087581;28;20449;-81
2021/12/26 11:31:59;;;;;;;18.43;16.53;;;;;;;;;;5090478;28;20452;-82
2021/12/26 11:34:27;;;;;;;15.97;14.30;;;;;;;;;;5086186;28;20432;-80
2021/12/26 11:36:54;;;;;;;13.00;11.70;;;;;;;;;;5073592;28;20465;-79
2021/12/26 11:39:23;;;;;;;14.68;13.18;;;;;;;;;;5085891;28;20441;-80
2021/12/26 11:41:52;;;;;;;13.23;11.87;;;;;;;;;;5082339;28;20220;-79
2021/12/26 11:44:27;;;;;;;13.83;12.43;;;;;;;;;;5079606;28;20514;-82
2021/12/26 11:47:03;;;;;;;12.83;11.50;;;;;;;;;;5078882;28;20466;-79
2021/12/26 11:50:00;;;;;;;13.60;12.20;;;;;;;;;;5079460;28;20429;-79
2021/12/26 11:52:34;;;;;;;12.50;11.20;;;;;;;;;;5079515;28;20913;-79
2021/12/26 11:55:11;;;;;;;14.17;11.93;;;;;;;;;;5081188;28;20810;-79
2021/12/26 11:57:46;;;;;;;12.67;10.90;;;;;;;;;;5081237;28;20506;-79
2021/12/26 12:00:15;;;;;;;11.77;10.53;;;;;;;;;;5079374;28;20492;-81
2021/12/26 12:02:44;;;;;;;11.93;10.00;;;;;;;;;;5077434;28;20838;-80
2021/12/26 12:05:12;;;;;;;12.27;11.00;;;;;;;;;;5078078;28;20457;-80
2021/12/26 12:07:55;;;;;;;11.07;9.98;;;;;;;;;;5074512;28;20488;-80
2021/12/26 12:10:33;;;;;;;11.77;10.37;;;;;;;;;;5084101;28;20194;-82
2021/12/26 12:13:00;;;;;;;10.80;9.87;;;;;;;;;;5081543;28;20448;-80
2021/12/26 12:15:41;;;;;;;11.00;9.90;;;;;;;;;;5080287;28;20570;-80
2021/12/26 12:18:10;;;;;;;13.13;11.83;;;;;;;;;;5082962;28;20458;-79
2021/12/26 12:20:37;;;;;;;11.70;10.63;;;;;;;;;;5083618;28;20492;-80
2021/12/26 12:23:13;;;;;;;11.40;10.13;;;;;;;;;;5082961;28;20444;-80
2021/12/26 12:25:48;;;;;;;11.00;10.00;;;;;;;;;;5074286;28;20808;-80
2021/12/26 12:28:16;;;;;;;29.10;25.97;;;;;;;;;;5083135;28;20439;-80
2021/12/26 12:30:45;;;;;;;55.07;39.93;;;;;;;;;;5083051;28;20446;-81
2021/12/26 12:33:13;;;;;;;12.53;11.37;;;;;;;;;;5083494;28;20457;-80
2021/12/26 12:35:48;;;;;;;11.80;10.53;;;;;;;;;;5083144;28;20467;-80
2021/12/26 12:38:22;;;;;;;11.73;10.60;;;;;;;;;;5080814;28;20957;-80
2021/12/26 12:40:51;;;;;;;12.30;10.93;;;;;;;;;;5081890;28;20473;-81
2021/12/26 12:43:19;;;;;;;11.60;10.57;;;;;;;;;;5080439;28;20443;-80
2021/12/26 12:46:06;;;;;;;10.90;10.00;;;;;;;;;;5079461;28;20222;-80
2021/12/26 12:48:38;;;;;;;10.73;9.73;;;;;;;;;;5082005;28;20469;-80
2021/12/26 12:51:25;;;;;;;11.37;10.37;;;;;;;;;;5082094;28;20448;-80
2021/12/26 12:53:54;;;;;;;11.13;10.07;;;;;;;;;;5082211;28;20453;-80
2021/12/26 12:56:44;;;;;;;11.35;10.27;;;;;;;;;;5082501;28;20543;-80
2021/12/26 12:59:41;;;;;;;11.83;10.73;;;;;;;;;;5081899;28;20225;-81
2021/12/26 13:02:10;;;;;;;11.17;10.17;;;;;;;;;;5035595;28;20488;-81
2021/12/26 13:04:45;;;;;;;11.90;10.77;;;;;;;;;;5052778;28;20462;-80
2021/12/26 13:07:16;;;;;;;11.27;10.17;;;;;;;;;;5062314;28;20514;-80
2021/12/26 13:09:47;;;;;;;11.63;10.53;;;;;;;;;;5061962;28;20460;-81
2021/12/26 13:12:16;;;;;;;11.97;10.90;;;;;;;;;;5062194;28;20435;-81
2021/12/26 13:14:44;;;;;;;11.00;9.93;;;;;;;;;;5061308;28;20501;-81
2021/12/26 13:17:13;;;;;;;10.43;9.43;;;;;;;;;;5061988;28;20440;-81
2021/12/26 13:19:40;;;;;;;10.57;9.67;;;;;;;;;;5059111;28;20446;-80
2021/12/26 13:22:07;;;;;;;16.40;14.70;;;;;;;;;;5061182;28;20846;-81
2021/12/26 13:24:36;;;;;;;14.00;12.50;;;;;;;;;;5063558;28;20465;-81
2021/12/26 13:27:05;;;;;;;76.77;61.37;;;;;;;;;;5058092;28;20440;-80
2021/12/26 13:29:33;;;;;;;12.37;10.47;;;;;;;;;;5059686;28;20442;-80
2021/12/26 13:32:01;;;;;;;10.03;9.10;;;;;;;;;;5060439;28;20926;-80
2021/12/26 13:34:28;;;;;;;11.10;9.73;;;;;;;;;;5060655;28;20459;-80
2021/12/26 13:36:55;;;;;;;10.50;9.50;;;;;;;;;;5062206;28;20474;-80
2021/12/26 13:39:23;;;;;;;9.10;8.20;;;;;;;;;;5060739;28;20515;-80
2021/12/26 13:41:52;;;;;;;9.47;8.63;;;;;;;;;;5062708;28;20487;-80
2021/12/26 13:44:20;;;;;;;10.20;9.30;;;;;;;;;;5062288;28;20453;-80
2021/12/26 13:46:57;;;;;;;9.73;8.83;;;;;;;;;;5059182;28;20489;-80
2021/12/26 13:49:24;;;;;;;10.68;9.65;;;;;;;;;;5062345;28;20450;-81
2021/12/26 13:51:55;;;;;;;10.17;9.27;;;;;;;;;;5061215;28;20204;-80
2021/12/26 13:54:24;;;;;;;9.43;8.57;;;;;;;;;;5061227;28;20543;-80
2021/12/26 13:56:52;;;;;;;8.70;7.93;;;;;;;;;;5061642;28;20453;-80
2021/12/26 13:59:33;;;;;;;9.87;9.07;;;;;;;;;;5062334;28;20212;-79
2021/12/26 14:02:02;;;;;;;10.83;9.73;;;;;;;;;;5063239;28;20479;-79
2021/12/26 14:04:29;;;;;;;10.00;9.07;;;;;;;;;;5081363;28;20832;-80
2021/12/26 14:06:56;;;;;;;9.93;9.03;;;;;;;;;;5081008;28;20478;-79
2021/12/26 14:09:24;;;;;;;9.70;8.80;;;;;;;;;;5082073;28;20447;-80
2021/12/26 14:11:52;;;;;;;9.50;8.47;;;;;;;;;;5081444;28;20440;-80
2021/12/26 14:14:27;;;;;;;10.20;9.30;;;;;;;;;;5080546;28;20455;-80
2021/12/26 14:16:54;;;;;;;9.87;8.97;;;;;;;;;;5081993;28;20512;-79
2021/12/26 14:19:22;;;;;;;10.00;9.10;;;;;;;;;;5094704;28;20449;-79
2021/12/26 14:21:50;;;;;;;10.20;9.30;;;;;;;;;;5096932;28;20465;-79
2021/12/26 14:24:21;;;;;;;10.20;9.30;;;;;;;;;;5095470;28;20448;-80
2021/12/26 14:26:48;;;;;;;10.57;9.67;;;;;;;;;;5095859;28;20218;-80
2021/12/26 14:29:18;;;;;;;11.20;10.10;;;;;;;;;;5081703;28;20440;-79